Time;durP1;ratioP1;P1;durP2;ratioP2;P2;SDS_P1;SDS_P2;PMS_P1;PMS_P2;Temp;Humidity;BMP_temperature;BMP_pressure;BME280_temperature;BME280_humidity;BME280_pressure;Samples;Min_cycle;Max_cycle;Signal;HPM_P1;HPM_P2
2022/05/23 00:02:09;;;;;;;8.50;5.10;;;16.00;92.80;;;;;;5076755;28;20178;-73
2022/05/23 00:04:37;;;;;;;6.93;4.43;;;16.30;92.80;;;;;;5072300;28;20695;-73
2022/05/23 00:07:15;;;;;;;4.63;3.40;;;16.50;92.20;;;;;;5070321;28;20181;-74
2022/05/23 00:09:43;;;;;;;6.83;3.40;;;16.50;91.30;;;;;;5088751;28;20702;-73
2022/05/23 00:12:10;;;;;;;4.50;3.33;;;16.70;91.30;;;;;;5080971;28;20273;-74
2022/05/23 00:14:38;;;;;;;8.40;3.03;;;16.60;91.30;;;;;;5074003;28;20190;-74
2022/05/23 00:17:07;;;;;;;7.57;2.57;;;16.40;90.80;;;;;;5087881;28;20190;-74
2022/05/23 00:19:34;;;;;;;4.87;2.03;;;16.10;91.20;;;;;;5072132;28;20192;-74
2022/05/23 00:22:01;;;;;;;5.90;2.20;;;15.90;91.20;;;;;;5076468;28;22124;-74
2022/05/23 00:24:29;;;;;;;6.93;2.20;;;15.80;91.40;;;;;;5087654;28;20195;-75
2022/05/23 00:26:56;;;;;;;4.87;2.00;;;15.60;91.10;;;;;;5076603;28;20185;-74
2022/05/23 00:29:24;;;;;;;5.20;1.90;;;15.40;91.10;;;;;;5074591;28;20183;-74
2022/05/23 00:37:23;;;;;;;5.43;2.17;;;15.40;91.10;;;;;;5074897;28;20600;-74
2022/05/23 00:39:51;;;;;;;3.90;1.80;;;15.30;90.80;;;;;;5075039;28;20176;-73
2022/05/23 00:45:07;;;;;;;7.23;2.23;;;15.30;90.70;;;;;;5073350;28;20271;-75
2022/05/23 00:47:35;;;;;;;5.20;2.20;;;15.30;90.80;;;;;;5074320;28;20196;-74
2022/05/23 00:50:03;;;;;;;7.03;2.20;;;15.30;90.70;;;;;;5075203;28;20169;-74
2022/05/23 00:52:38;;;;;;;4.00;2.43;;;15.40;91.20;;;;;;5066489;28;20176;-75
2022/05/23 00:55:18;;;;;;;9.07;2.20;;;15.50;91.60;;;;;;5073763;28;20668;-75
2022/05/23 00:57:48;;;;;;;5.70;2.43;;;15.70;91.30;;;;;;5070926;28;20700;-74
2022/05/23 01:00:16;;;;;;;4.10;2.30;;;15.70;91.10;;;;;;5077644;28;20206;-73
2022/05/23 01:02:51;;;;;;;6.07;2.47;;;15.80;90.70;;;;;;5077004;28;20207;-74
2022/05/23 01:05:19;;;;;;;4.97;1.90;;;15.80;90.40;;;;;;5071614;28;20199;-74
2022/05/23 01:07:46;;;;;;;6.53;2.67;;;15.90;90.50;;;;;;5071519;28;20628;-75
2022/05/23 01:10:13;;;;;;;5.27;3.10;;;16.00;90.80;;;;;;5072649;28;20180;-75
2022/05/23 01:12:42;;;;;;;7.00;2.60;;;16.20;91.00;;;;;;5061365;28;20186;-74
2022/05/23 01:15:25;;;;;;;5.20;2.00;;;16.30;90.60;;;;;;5072758;28;20195;-74
2022/05/23 01:17:52;;;;;;;5.70;2.47;;;16.20;89.80;;;;;;5078434;28;20215;-74
2022/05/23 01:20:21;;;;;;;6.47;2.67;;;16.30;89.50;;;;;;5074364;28;20663;-74
2022/05/23 01:23:06;;;;;;;5.07;2.50;;;16.60;90.20;;;;;;5073251;28;20214;-74
2022/05/23 01:25:41;;;;;;;4.70;2.37;;;16.80;90.00;;;;;;5071715;28;20216;-74
2022/05/23 01:28:08;;;;;;;5.73;2.30;;;16.60;89.00;;;;;;5073139;28;20276;-74
2022/05/23 01:30:37;;;;;;;6.57;2.40;;;16.70;89.50;;;;;;5074539;28;20207;-74
2022/05/23 01:33:04;;;;;;;5.63;2.40;;;16.60;88.20;;;;;;5057677;28;20544;-73
2022/05/23 01:35:32;;;;;;;5.87;2.07;;;16.50;88.50;;;;;;5074659;28;20541;-73
2022/05/23 01:37:59;;;;;;;3.30;1.60;;;16.40;89.00;;;;;;5072701;28;20847;-73
2022/05/23 01:40:27;;;;;;;5.23;2.07;;;16.40;88.50;;;;;;5073080;28;20182;-73
2022/05/23 01:42:55;;;;;;;5.73;1.60;;;16.50;88.30;;;;;;5070617;28;20229;-74
2022/05/23 01:45:31;;;;;;;6.87;1.97;;;16.60;88.50;;;;;;5072757;28;20269;-74
2022/05/23 01:48:00;;;;;;;8.57;2.37;;;16.70;88.50;;;;;;5070160;28;20183;-74
2022/05/23 01:50:27;;;;;;;6.47;2.00;;;16.80;87.90;;;;;;5069435;28;20194;-73
2022/05/23 01:52:55;;;;;;;3.33;1.70;;;16.80;88.10;;;;;;5064996;28;20199;-74
2022/05/23 01:55:23;;;;;;;9.07;2.30;;;16.70;87.80;;;;;;5070325;28;20656;-73
2022/05/23 01:57:50;;;;;;;8.63;2.20;;;16.70;88.10;;;;;;5070430;28;20190;-75
2022/05/23 02:03:04;;;;;;;6.57;2.20;;;16.50;87.40;;;;;;5054204;28;20731;-74
2022/05/23 02:05:33;;;;;;;8.20;2.57;;;16.50;87.80;;;;;;5066806;28;20203;-72
2022/05/23 02:08:01;;;;;;;7.73;2.53;;;16.40;87.90;;;;;;5071040;28;20634;-75
2022/05/23 02:10:30;;;;;;;8.17;2.30;;;16.40;88.60;;;;;;5066487;28;20183;-75
2022/05/23 02:13:00;;;;;;;11.33;2.80;;;16.40;89.20;;;;;;5071343;28;20189;-75
2022/05/23 02:15:30;;;;;;;8.03;2.80;;;16.30;89.20;;;;;;5084777;28;20210;-75
2022/05/23 02:18:02;;;;;;;10.50;3.13;;;16.40;89.50;;;;;;5091654;28;20173;-76
2022/05/23 02:20:31;;;;;;;7.57;2.97;;;16.30;89.60;;;;;;5073438;28;20178;-75
2022/05/23 02:22:58;;;;;;;7.67;3.20;;;16.30;89.50;;;;;;5073826;28;20733;-75
2022/05/23 02:25:26;;;;;;;7.47;2.77;;;16.30;89.80;;;;;;5071651;28;20185;-74
2022/05/23 02:27:56;;;;;;;9.50;2.40;;;16.30;90.10;;;;;;5071159;28;20708;-76
2022/05/23 02:30:23;;;;;;;9.53;2.43;;;16.30;89.90;;;;;;5071331;28;20234;-76
2022/05/23 02:32:51;;;;;;;8.20;2.50;;;16.20;89.70;;;;;;5071262;28;20184;-75
2022/05/23 02:35:19;;;;;;;8.23;2.97;;;16.20;90.00;;;;;;5081465;28;20212;-75
2022/05/23 02:37:47;;;;;;;8.87;2.90;;;16.30;90.00;;;;;;5078257;28;20189;-75
2022/05/23 02:40:16;;;;;;;10.43;3.20;;;16.30;90.30;;;;;;5073119;28;20248;-75
2022/05/23 02:42:43;;;;;;;9.30;3.47;;;16.40;90.20;;;;;;5072082;28;20277;-75
2022/05/23 02:45:11;;;;;;;8.93;2.70;;;16.50;90.20;;;;;;5073241;28;20213;-75
2022/05/23 02:47:39;;;;;;;9.50;2.83;;;16.50;89.90;;;;;;5074913;28;20186;-74
2022/05/23 02:50:09;;;;;;;6.57;2.67;;;16.60;89.80;;;;;;5068128;28;20194;-74
2022/05/23 02:52:37;;;;;;;13.83;2.77;;;16.60;90.00;;;;;;5071671;28;20190;-75
2022/05/23 02:55:06;;;;;;;8.30;2.90;;;16.70;89.80;;;;;;5073681;28;20232;-75
2022/05/23 02:57:34;;;;;;;6.37;2.50;;;16.80;89.90;;;;;;5072724;28;20190;-75
2022/05/23 03:00:01;;;;;;;7.57;3.17;;;17.00;89.20;;;;;;5073378;28;20178;-74
2022/05/23 03:03:10;;;;;;;7.17;2.63;;;17.00;88.50;;;;;;5072887;28;20209;-77
2022/05/23 03:05:19;;;;;;;10.73;2.40;;;16.90;87.80;;;;;;5072322;28;20193;-76
2022/05/23 03:07:46;;;;;;;5.00;1.73;;;16.90;87.50;;;;;;5072450;28;20183;-75
2022/05/23 03:10:14;;;;;;;9.63;1.77;;;17.10;87.40;;;;;;5073070;28;20570;-75
2022/05/23 03:12:41;;;;;;;8.43;2.00;;;17.10;87.20;;;;;;5071951;28;20191;-74
2022/05/23 03:15:10;;;;;;;9.07;1.80;;;17.00;86.20;;;;;;5069981;28;20187;-74
2022/05/23 03:17:38;;;;;;;13.70;2.13;;;16.90;86.80;;;;;;5071973;28;20186;-74
2022/05/23 03:20:06;;;;;;;10.47;1.87;;;17.00;87.10;;;;;;5076845;28;20184;-74
2022/05/23 03:28:04;;;;;;;8.13;1.83;;;16.70;87.60;;;;;;5070244;28;20700;-73
2022/05/23 03:30:32;;;;;;;11.83;1.97;;;16.70;88.20;;;;;;5072337;28;20183;-74
2022/05/23 03:33:00;;;;;;;8.83;1.93;;;16.60;88.40;;;;;;5070554;28;20284;-74
2022/05/23 03:35:29;;;;;;;7.17;1.80;;;16.50;88.80;;;;;;5072225;28;20257;-73
2022/05/23 03:37:57;;;;;;;15.13;2.70;;;16.70;89.10;;;;;;5081713;28;20200;-74
2022/05/23 03:40:25;;;;;;;8.70;1.63;;;16.60;89.10;;;;;;5092352;28;20319;-73
2022/05/23 03:42:52;;;;;;;8.60;2.07;;;16.60;89.10;;;;;;5074768;28;20227;-73
2022/05/23 03:45:20;;;;;;;5.23;1.50;;;16.60;88.20;;;;;;5084081;28;20275;-73
2022/05/23 03:47:49;;;;;;;5.70;1.60;;;16.50;88.40;;;;;;5073141;28;20502;-74
2022/05/23 03:50:16;;;;;;;7.53;1.70;;;16.50;88.50;;;;;;5076467;28;20167;-74
2022/05/23 03:52:44;;;;;;;7.23;1.87;;;16.30;87.20;;;;;;5082497;28;20181;-74
2022/05/23 03:55:12;;;;;;;5.23;1.40;;;16.40;87.80;;;;;;5095599;28;20227;-74
2022/05/23 03:57:39;;;;;;;6.93;1.53;;;16.40;88.00;;;;;;5093239;28;20278;-74
2022/05/23 04:00:09;;;;;;;6.90;1.37;;;16.50;87.90;;;;;;5074626;28;20693;-73
2022/05/23 04:02:37;;;;;;;6.37;1.67;;;16.40;87.70;;;;;;5080514;28;20199;-74
2022/05/23 04:05:04;;;;;;;10.80;1.97;;;16.40;87.70;;;;;;5092069;28;20201;-74
2022/05/23 04:07:34;;;;;;;4.60;2.00;;;16.30;88.10;;;;;;5085836;28;20208;-73
2022/05/23 04:10:02;;;;;;;9.23;2.07;;;16.30;88.30;;;;;;5080379;28;20183;-74
2022/05/23 04:12:29;;;;;;;4.97;1.70;;;16.30;88.20;;;;;;5094908;28;20187;-74
2022/05/23 04:14:56;;;;;;;8.90;2.10;;;16.30;88.40;;;;;;5067873;28;20206;-75
2022/05/23 04:17:24;;;;;;;8.80;1.87;;;16.00;88.10;;;;;;5075719;28;20190;-74
2022/05/23 04:19:51;;;;;;;6.73;2.13;;;15.90;87.20;;;;;;5079235;28;20207;-74
2022/05/23 04:22:18;;;;;;;10.43;1.77;;;15.90;88.00;;;;;;5074368;28;20659;-73
2022/05/23 04:24:46;;;;;;;3.97;1.80;;;15.90;88.30;;;;;;5087171;28;20650;-75
2022/05/23 04:27:13;;;;;;;7.23;2.20;;;15.90;88.60;;;;;;5095565;28;20176;-74
2022/05/23 04:29:41;;;;;;;7.73;2.30;;;16.00;88.60;;;;;;5095919;28;20171;-74
2022/05/23 04:35:15;;;;;;;7.30;2.20;;;16.30;88.90;;;;;;5087962;28;20197;-74
2022/05/23 04:37:48;;;;;;;7.10;2.13;;;16.30;88.80;;;;;;5094767;28;20183;-74
2022/05/23 04:40:19;;;;;;;8.20;2.00;;;16.30;88.60;;;;;;5096022;28;20171;-74
2022/05/23 04:42:47;;;;;;;8.93;2.10;;;16.20;88.70;;;;;;5093933;28;20228;-74
2022/05/23 04:45:15;;;;;;;8.93;2.07;;;16.20;88.50;;;;;;5095752;28;20176;-73
2022/05/23 04:50:28;;;;;;;5.33;2.00;;;16.20;88.50;;;;;;5075402;28;20188;-74
2022/05/23 04:52:57;;;;;;;5.33;1.83;;;16.30;88.60;;;;;;5081263;28;20237;-73
2022/05/23 04:55:25;;;;;;;7.30;1.97;;;16.30;88.20;;;;;;5081850;28;20631;-74
2022/05/23 04:57:53;;;;;;;4.67;1.80;;;16.20;88.30;;;;;;5074641;28;20169;-72
2022/05/23 05:00:22;;;;;;;2.70;1.30;;;16.20;88.50;;;;;;5073659;28;20184;-74
2022/05/23 05:02:51;;;;;;;4.97;1.73;;;16.00;88.20;;;;;;5070489;28;20201;-73
2022/05/23 05:05:19;;;;;;;3.53;1.80;;;16.10;87.40;;;;;;5071411;28;20728;-74
2022/05/23 05:07:46;;;;;;;3.33;2.10;;;16.00;87.20;;;;;;5070843;28;20254;-74
2022/05/23 05:10:13;;;;;;;2.60;1.50;;;16.00;87.20;;;;;;5072878;28;20269;-74
2022/05/23 05:12:41;;;;;;;3.53;1.53;;;16.10;87.40;;;;;;5071450;28;20184;-74
2022/05/23 05:15:09;;;;;;;5.23;1.90;;;16.30;87.90;;;;;;5074564;28;20174;-74
2022/05/23 05:17:36;;;;;;;3.57;1.47;;;16.30;87.90;;;;;;5074912;28;20176;-74
2022/05/23 05:20:04;;;;;;;3.60;1.70;;;16.30;88.60;;;;;;5093711;28;20735;-74
2022/05/23 05:22:32;;;;;;;6.20;2.40;;;16.30;88.30;;;;;;5083767;28;20206;-74
2022/05/23 05:24:59;;;;;;;8.33;2.50;;;16.20;89.00;;;;;;5072887;28;20706;-74
2022/05/23 05:27:27;;;;;;;6.87;2.30;;;16.20;89.70;;;;;;5094481;28;20223;-74
2022/05/23 05:29:54;;;;;;;7.03;2.03;;;16.20;89.30;;;;;;5093953;28;20185;-74
2022/05/23 05:32:26;;;;;;;4.37;1.63;;;16.20;89.80;;;;;;5093533;28;20260;-74
2022/05/23 05:35:12;;;;;;;5.60;1.97;;;16.10;89.80;;;;;;5062654;28;20173;-74
2022/05/23 05:37:45;;;;;;;4.00;1.63;;;16.10;90.00;;;;;;5068038;28;20214;-74
2022/05/23 05:40:20;;;;;;;5.30;1.70;;;16.10;90.30;;;;;;5071435;28;20272;-74
2022/05/23 05:42:51;;;;;;;4.93;1.90;;;16.00;89.80;;;;;;5080215;28;20220;-74
2022/05/23 05:45:32;;;;;;;8.07;1.87;;;15.90;90.20;;;;;;5072384;28;20178;-73
2022/05/23 05:48:01;;;;;;;6.00;1.60;;;15.90;90.20;;;;;;5082633;28;20254;-74
2022/05/23 05:50:33;;;;;;;8.53;2.00;;;15.80;90.00;;;;;;5087671;28;20216;-74
2022/05/23 05:53:06;;;;;;;4.93;1.80;;;15.70;90.20;;;;;;5072650;28;21664;-74
2022/05/23 05:55:33;;;;;;;6.83;1.60;;;15.70;90.30;;;;;;5072243;28;21884;-74
2022/05/23 05:58:01;;;;;;;7.53;1.70;;;15.70;90.30;;;;;;5071457;28;20192;-74
2022/05/23 06:00:28;;;;;;;5.87;1.70;;;15.70;90.40;;;;;;5072774;28;20207;-74
2022/05/23 06:02:55;;;;;;;4.17;2.10;;;15.60;90.10;;;;;;5067465;28;20674;-74
2022/05/23 06:05:23;;;;;;;6.53;1.83;;;15.50;90.50;;;;;;5074296;28;20181;-74
2022/05/23 06:13:21;;;;;;;6.40;1.70;;;15.30;89.90;;;;;;5069400;28;20213;-73
2022/05/23 06:15:48;;;;;;;2.43;1.53;;;15.20;89.70;;;;;;5073722;28;20635;-73
2022/05/23 06:18:16;;;;;;;3.43;1.50;;;15.10;89.50;;;;;;5068778;28;20627;-74
2022/05/23 06:20:43;;;;;;;4.40;1.80;;;14.90;89.30;;;;;;5070865;28;20714;-73
2022/05/23 06:23:10;;;;;;;3.37;1.73;;;14.80;89.70;;;;;;5073773;28;20214;-74
2022/05/23 06:25:38;;;;;;;5.63;1.53;;;14.80;89.50;;;;;;5063657;28;20274;-74
2022/05/23 06:28:05;;;;;;;6.07;2.43;;;14.70;89.50;;;;;;5073104;28;20179;-75
2022/05/23 06:30:33;;;;;;;11.13;5.80;;;14.70;89.60;;;;;;5053555;28;20540;-74
2022/05/23 06:33:00;;;;;;;6.70;2.30;;;14.70;90.20;;;;;;5081268;28;20228;-74
2022/05/23 06:35:28;;;;;;;6.87;2.53;;;14.70;90.40;;;;;;5093792;28;20179;-75
2022/05/23 06:37:55;;;;;;;4.03;2.00;;;14.70;90.70;;;;;;5074402;28;20222;-74
2022/05/23 06:40:23;;;;;;;7.20;2.10;;;14.70;90.70;;;;;;5070230;28;20179;-73
2022/05/23 06:42:50;;;;;;;7.80;2.53;;;14.70;91.00;;;;;;5074646;28;20219;-74
2022/05/23 06:45:18;;;;;;;8.23;2.80;;;14.80;91.00;;;;;;5073015;28;20262;-74
2022/05/23 06:47:45;;;;;;;7.90;3.27;;;14.70;91.20;;;;;;5072416;28;20254;-74
2022/05/23 06:50:13;;;;;;;10.07;2.50;;;14.80;91.60;;;;;;5073077;28;20633;-74
2022/05/23 06:52:40;;;;;;;7.10;3.00;;;14.70;91.60;;;;;;5072410;28;20182;-74
2022/05/23 06:55:08;;;;;;;9.23;2.57;;;14.70;91.90;;;;;;5072070;28;20181;-74
2022/05/23 06:57:35;;;;;;;6.33;2.53;;;14.70;91.90;;;;;;5077770;28;20183;-74
2022/05/23 07:00:04;;;;;;;10.27;2.50;;;14.70;91.70;;;;;;5093046;28;20688;-74
2022/05/23 07:02:32;;;;;;;6.23;2.30;;;14.60;91.80;;;;;;5060426;28;20539;-75
2022/05/23 07:13:15;;;;;;;5.63;2.37;;;14.50;91.70;;;;;;5062959;28;20228;-75
2022/05/23 07:15:47;;;;;;;6.60;2.83;;;14.50;91.70;;;;;;5073271;28;20210;-74
2022/05/23 07:18:16;;;;;;;6.17;2.63;;;14.60;92.00;;;;;;5072632;28;20696;-74
2022/05/23 07:20:43;;;;;;;7.00;2.60;;;14.50;92.00;;;;;;5072923;28;20617;-75
2022/05/23 07:23:11;;;;;;;9.77;2.50;;;14.50;92.10;;;;;;5072038;28;20222;-75
2022/05/23 07:25:40;;;;;;;12.43;2.90;;;14.60;92.20;;;;;;5070786;28;20285;-76
2022/05/23 07:28:08;;;;;;;9.90;2.97;;;14.60;92.20;;;;;;5071036;28;20179;-76
2022/05/23 07:30:36;;;;;;;10.17;3.17;;;14.60;92.20;;;;;;5079421;28;20205;-75
2022/05/23 07:33:03;;;;;;;9.13;3.10;;;14.60;92.30;;;;;;5090384;28;20194;-75
2022/05/23 07:35:30;;;;;;;9.10;2.93;;;14.60;92.40;;;;;;5091425;28;20171;-75
2022/05/23 07:37:58;;;;;;;5.93;3.10;;;14.60;92.40;;;;;;5076239;28;20190;-78
2022/05/23 07:40:26;;;;;;;10.43;2.80;;;14.60;92.30;;;;;;5082057;28;20649;-75
2022/05/23 07:42:53;;;;;;;9.90;3.17;;;14.60;92.30;;;;;;5072340;28;20221;-77
2022/05/23 07:45:23;;;;;;;8.77;2.90;;;14.60;92.40;;;;;;5072730;28;20283;-77
2022/05/23 07:47:51;;;;;;;6.07;3.30;;;14.60;92.50;;;;;;5070095;28;20695;-77
2022/05/23 07:50:19;;;;;;;14.43;3.23;;;14.60;92.50;;;;;;5083070;28;20298;-79
2022/05/23 08:00:31;;;;;;;8.53;3.10;;;14.60;92.60;;;;;;5072260;28;20221;-78
2022/05/23 08:01:04;;;;;;;9.33;3.10;;;14.60;92.80;;;;;;5072662;28;20186;-77
2022/05/23 08:03:31;;;;;;;5.53;3.30;;;14.60;92.70;;;;;;5072300;28;20227;-76
2022/05/23 08:05:59;;;;;;;7.87;3.30;;;14.60;92.80;;;;;;5072307;28;20180;-77
2022/05/23 08:08:26;;;;;;;12.63;3.30;;;14.60;93.00;;;;;;5070726;28;20198;-76
2022/05/23 08:10:53;;;;;;;5.33;2.90;;;14.70;93.00;;;;;;5072255;28;20783;-77
2022/05/23 08:13:21;;;;;;;11.77;3.30;;;14.70;93.00;;;;;;5071562;28;20187;-78
2022/05/23 08:15:48;;;;;;;9.60;3.77;;;14.70;93.00;;;;;;5072359;28;20186;-78
2022/05/23 08:18:17;;;;;;;11.47;4.20;;;14.70;93.00;;;;;;5079963;28;20713;-78
2022/05/23 08:20:45;;;;;;;12.00;3.33;;;14.70;93.10;;;;;;5077017;28;20187;-78
2022/05/23 08:23:13;;;;;;;11.27;3.60;;;14.70;93.10;;;;;;5067136;28;20219;-78
2022/05/23 08:25:40;;;;;;;12.70;4.10;;;14.70;93.10;;;;;;5075462;28;20175;-78
2022/05/23 08:28:07;;;;;;;12.83;4.53;;;14.70;93.20;;;;;;5072299;28;20184;-78
2022/05/23 08:30:35;;;;;;;11.37;4.50;;;14.70;93.30;;;;;;5072538;28;20251;-79
2022/05/23 08:33:02;;;;;;;16.13;4.83;;;14.70;93.30;;;;;;5065265;28;20184;-77
2022/05/23 08:35:30;;;;;;;10.33;4.50;;;14.70;93.40;;;;;;5067607;28;20171;-78
2022/05/23 08:37:58;;;;;;;13.33;4.73;;;14.70;93.50;;;;;;5072594;28;20593;-77
2022/05/23 08:40:46;;;;;;;15.60;4.37;;;14.80;93.60;;;;;;5073612;28;20183;-78
2022/05/23 08:43:21;;;;;;;10.40;4.17;;;14.80;93.50;;;;;;5074976;28;20253;-78
2022/05/23 08:45:52;;;;;;;14.53;4.67;;;14.80;93.50;;;;;;5067851;28;20179;-78
2022/05/23 08:48:38;;;;;;;19.97;4.73;;;14.80;93.50;;;;;;5087989;28;20183;-77
2022/05/23 08:51:14;;;;;;;12.87;4.43;;;14.80;93.50;;;;;;5075149;28;20180;-77
2022/05/23 08:53:56;;;;;;;16.73;4.67;;;14.80;93.60;;;;;;5069755;28;20261;-78
2022/05/23 08:56:33;;;;;;;13.03;4.20;;;14.80;93.60;;;;;;5078158;28;20638;-80
2022/05/23 08:59:03;;;;;;;11.13;4.30;;;14.70;93.60;;;;;;5091404;28;20180;-79
2022/05/23 09:01:54;;;;;;;12.67;4.20;;;14.80;93.60;;;;;;5075133;28;20177;-80
2022/05/23 09:04:50;;;;;;;17.07;5.20;;;14.70;93.60;;;;;;5075467;28;20567;-79
2022/05/23 09:07:31;;;;;;;13.67;5.47;;;14.80;93.60;;;;;;5074993;28;20183;-77
2022/05/23 09:10:05;;;;;;;15.27;5.60;;;14.80;93.60;;;;;;5067793;28;20180;-77
2022/05/23 09:12:33;;;;;;;10.87;5.20;;;14.70;93.70;;;;;;5073621;28;20201;-80
2022/05/23 09:15:00;;;;;;;12.73;5.43;;;14.70;93.60;;;;;;5084114;28;20179;-78
2022/05/23 09:17:37;;;;;;;14.33;6.00;;;14.70;93.80;;;;;;5074319;28;20172;-76
2022/05/23 09:20:19;;;;;;;9.50;5.10;;;14.70;93.80;;;;;;5086029;28;20555;-78
2022/05/23 09:22:53;;;;;;;9.33;4.13;;;14.70;93.80;;;;;;5078900;28;20290;-80
2022/05/23 09:25:26;;;;;;;9.37;4.50;;;14.70;93.80;;;;;;5067844;28;20176;-82
2022/05/23 09:28:33;;;;;;;12.50;4.70;;;14.70;93.90;;;;;;5053633;28;20176;-80
2022/05/23 09:31:03;;;;;;;10.10;5.20;;;14.70;93.80;;;;;;5072443;28;20182;-81
2022/05/23 09:33:31;;;;;;;13.50;5.40;;;14.70;93.80;;;;;;5073412;28;20541;-80
2022/05/23 09:36:13;;;;;;;13.93;5.93;;;14.70;93.80;;;;;;5074557;28;20633;-80
2022/05/23 09:38:52;;;;;;;10.63;5.73;;;14.70;93.90;;;;;;5073445;28;20171;-80
2022/05/23 09:50:10;;;;;;;11.97;4.80;;;14.60;93.80;;;;;;5069849;28;20184;-80
2022/05/23 09:52:50;;;;;;;17.27;5.57;;;14.60;93.80;;;;;;5074670;28;20175;-78
2022/05/23 09:55:30;;;;;;;21.63;5.90;;;14.60;93.80;;;;;;5074169;28;20182;-79
2022/05/23 09:58:11;;;;;;;17.50;5.93;;;14.50;93.90;;;;;;5078962;28;20657;-79
2022/05/23 10:00:54;;;;;;;16.77;5.70;;;14.50;93.80;;;;;;5076603;28;20190;-79
2022/05/23 10:03:25;;;;;;;13.63;5.77;;;14.50;94.00;;;;;;5094632;28;20213;-78
2022/05/23 10:06:07;;;;;;;13.13;5.30;;;14.50;93.90;;;;;;5087069;28;20258;-80
2022/05/23 10:08:48;;;;;;;15.00;7.20;;;14.50;93.90;;;;;;5072994;28;20175;-80
2022/05/23 10:11:28;;;;;;;12.67;5.77;;;14.50;94.00;;;;;;5075855;28;20653;-79
2022/05/23 10:13:59;;;;;;;17.37;5.80;;;14.50;94.10;;;;;;5094152;28;20212;-77
2022/05/23 10:16:30;;;;;;;13.27;6.00;;;14.50;94.10;;;;;;5091184;28;20189;-79
2022/05/23 10:19:02;;;;;;;12.03;5.40;;;14.50;94.10;;;;;;5094339;28;20163;-78
2022/05/23 10:21:35;;;;;;;10.03;5.87;;;14.50;94.10;;;;;;5076138;28;20191;-78
2022/05/23 10:24:17;;;;;;;16.53;6.20;;;14.50;94.10;;;;;;5052915;28;20640;-78
2022/05/23 10:27:00;;;;;;;11.80;5.70;;;14.50;94.10;;;;;;5054102;28;20175;-79
2022/05/23 10:29:53;;;;;;;15.53;6.90;;;14.50;94.20;;;;;;5070256;28;20175;-79
2022/05/23 10:32:48;;;;;;;17.13;7.00;;;14.50;94.00;;;;;;5074092;28;20257;-79
2022/05/23 10:35:38;;;;;;;11.23;6.07;;;14.50;94.10;;;;;;5074591;28;20228;-79
2022/05/23 10:44:39;;;;;;;7.37;4.50;;;14.40;93.90;;;;;;5080336;28;20237;-80
2022/05/23 10:47:33;;;;;;;6.53;3.97;;;14.40;93.80;;;;;;5068073;28;20196;-79
2022/05/23 10:50:11;;;;;;;5.87;3.33;;;14.30;93.60;;;;;;5093667;28;20181;-79
2022/05/23 10:53:06;;;;;;;6.30;2.93;;;14.30;93.50;;;;;;5080917;28;20190;-79
2022/05/23 10:56:05;;;;;;;4.73;3.67;;;14.30;93.40;;;;;;5078108;28;20175;-80
2022/05/23 10:58:42;;;;;;;9.37;3.63;;;14.30;93.30;;;;;;5075640;28;20550;-81
2022/05/23 11:01:22;;;;;;;7.97;3.27;;;14.30;93.20;;;;;;5080940;28;20182;-81
2022/05/23 11:03:52;;;;;;;6.43;3.50;;;14.40;93.20;;;;;;5091589;28;20202;-81
2022/05/23 11:06:50;;;;;;;7.27;3.07;;;14.30;93.20;;;;;;5075618;28;20190;-81
2022/05/23 11:09:50;;;;;;;5.23;2.90;;;14.30;93.20;;;;;;5075536;28;20171;-79
2022/05/23 11:12:31;;;;;;;6.90;3.27;;;14.30;93.30;;;;;;5073000;28;20250;-80
2022/05/23 11:15:32;;;;;;;10.40;3.03;;;14.30;93.30;;;;;;5072304;28;20190;-80
2022/05/23 11:18:06;;;;;;;6.47;3.77;;;14.30;93.40;;;;;;5093075;28;20266;-79
2022/05/23 11:20:36;;;;;;;5.73;3.50;;;14.30;93.50;;;;;;5081972;28;20255;-81
2022/05/23 11:23:31;;;;;;;7.57;3.70;;;14.30;93.50;;;;;;5071042;28;20222;-81
2022/05/23 11:26:25;;;;;;;7.90;3.90;;;14.30;93.60;;;;;;5071578;28;20187;-81
2022/05/23 11:34:47;;;;;;;7.70;4.07;;;14.30;93.80;;;;;;5072283;28;20651;-82
2022/05/23 11:40:01;;;;;;;8.20;3.57;;;14.30;93.90;;;;;;5069905;28;20545;-82
2022/05/23 11:42:34;;;;;;;5.83;3.83;;;14.20;94.00;;;;;;5059127;28;20263;-81
2022/05/23 11:47:57;;;;;;;6.73;4.50;;;14.20;94.00;;;;;;5072498;28;20178;-80
2022/05/23 11:50:33;;;;;;;7.00;4.17;;;14.20;94.10;;;;;;5069144;28;20190;-81
2022/05/23 11:53:28;;;;;;;11.27;6.40;;;14.20;94.20;;;;;;5071369;28;20676;-82
2022/05/23 11:55:55;;;;;;;10.77;4.57;;;14.20;94.20;;;;;;5074315;28;20171;-82
2022/05/23 11:58:45;;;;;;;10.43;4.00;;;14.20;94.20;;;;;;5075453;28;20187;-81
2022/05/23 12:01:13;;;;;;;10.37;3.90;;;14.20;94.30;;;;;;5066509;28;20179;-80
2022/05/23 12:03:56;;;;;;;7.37;4.10;;;14.10;94.20;;;;;;5075916;28;20207;-81
2022/05/23 12:06:24;;;;;;;7.93;4.57;;;14.10;94.30;;;;;;5077100;28;20174;-80
2022/05/23 12:09:22;;;;;;;9.57;4.10;;;14.10;94.30;;;;;;5085984;28;20210;-81
2022/05/23 12:12:13;;;;;;;8.83;4.50;;;14.10;94.30;;;;;;5066105;28;20191;-82
2022/05/23 12:14:40;;;;;;;9.70;4.73;;;14.00;94.30;;;;;;5056405;28;20183;-81
2022/05/23 12:17:12;;;;;;;11.03;4.63;;;14.00;94.40;;;;;;5072960;28;20270;-82
2022/05/23 12:19:40;;;;;;;9.07;4.77;;;14.00;94.40;;;;;;5081805;28;20202;-82
2022/05/23 12:22:22;;;;;;;14.30;5.07;;;14.00;94.50;;;;;;5075765;28;20175;-81
2022/05/23 12:25:13;;;;;;;11.23;5.20;;;13.90;94.30;;;;;;5074314;28;20211;-80
2022/05/23 12:27:46;;;;;;;12.97;4.53;;;13.90;94.40;;;;;;5075095;28;20171;-80
2022/05/23 12:30:26;;;;;;;10.63;4.60;;;13.80;94.40;;;;;;5075476;28;20209;-81
2022/05/23 12:33:04;;;;;;;15.97;5.00;;;13.80;94.40;;;;;;5075156;28;20186;-82
2022/05/23 12:35:40;;;;;;;12.57;5.17;;;13.70;94.40;;;;;;5074977;28;20175;-82
2022/05/23 12:38:14;;;;;;;7.60;4.37;;;13.70;94.40;;;;;;5075876;28;20175;-81
2022/05/23 12:40:54;;;;;;;10.27;5.10;;;13.60;94.50;;;;;;5088137;28;20186;-80
2022/05/23 12:43:41;;;;;;;8.20;5.17;;;13.60;94.50;;;;;;5081034;28;20234;-80
2022/05/23 12:46:11;;;;;;;9.73;5.37;;;13.50;94.50;;;;;;5075856;28;20210;-79
2022/05/23 12:49:12;;;;;;;12.37;5.30;;;13.50;94.70;;;;;;5074749;28;20652;-80
2022/05/23 12:52:07;;;;;;;11.33;5.20;;;13.50;94.80;;;;;;5075628;28;20538;-79
2022/05/23 12:55:01;;;;;;;9.03;5.60;;;13.50;94.80;;;;;;5062080;28;20668;-80
2022/05/23 12:58:03;;;;;;;11.27;5.67;;;13.50;94.90;;;;;;5055740;28;20168;-82
2022/05/23 13:00:45;;;;;;;7.33;5.87;;;13.50;94.90;;;;;;5055612;28;20175;-80
2022/05/23 13:03:33;;;;;;;12.73;6.00;;;13.40;94.90;;;;;;5073550;28;20215;-80
2022/05/23 13:06:23;;;;;;;14.03;6.00;;;13.40;94.90;;;;;;5075362;28;20179;-82
2022/05/23 13:09:05;;;;;;;11.33;6.13;;;13.40;94.90;;;;;;5074045;28;20186;-83
2022/05/23 13:11:40;;;;;;;11.90;6.03;;;13.40;94.90;;;;;;5060826;28;20536;-82
2022/05/23 13:14:08;;;;;;;11.13;6.40;;;13.40;95.00;;;;;;5073558;28;20181;-80
2022/05/23 13:16:38;;;;;;;9.70;6.30;;;13.40;95.00;;;;;;5066927;28;20537;-80
2022/05/23 13:22:08;;;;;;;12.83;6.20;;;13.30;94.90;;;;;;5074574;28;20240;-80
2022/05/23 13:24:50;;;;;;;12.27;7.00;;;13.30;94.90;;;;;;5072782;28;20673;-81
2022/05/23 13:27:37;;;;;;;13.53;6.77;;;13.20;95.00;;;;;;5067372;28;20175;-81
2022/05/23 13:30:18;;;;;;;7.13;5.40;;;13.20;95.00;;;;;;5073605;28;20179;-79
2022/05/23 13:33:02;;;;;;;9.27;6.17;;;13.20;95.00;;;;;;5074694;28;20330;-78
2022/05/23 13:35:31;;;;;;;13.43;6.00;;;13.20;95.10;;;;;;5075001;28;20171;-81
2022/05/23 13:38:23;;;;;;;12.17;5.63;;;13.10;95.10;;;;;;5074632;28;20207;-82
2022/05/23 13:40:53;;;;;;;14.53;6.00;;;13.20;95.20;;;;;;5074701;28;20163;-81
2022/05/23 13:43:44;;;;;;;8.97;5.60;;;13.10;95.10;;;;;;5074728;28;20227;-81
2022/05/23 13:46:20;;;;;;;11.53;6.03;;;13.00;95.10;;;;;;5084253;28;20217;-80
2022/05/23 13:48:54;;;;;;;10.00;6.40;;;13.00;95.10;;;;;;5095159;28;20166;-80
2022/05/23 13:51:40;;;;;;;9.63;5.87;;;12.90;95.10;;;;;;5093731;28;20188;-81
2022/05/23 13:54:38;;;;;;;10.17;5.90;;;12.90;95.10;;;;;;5073882;28;20693;-82
2022/05/23 13:57:11;;;;;;;8.73;5.47;;;13.00;95.20;;;;;;5074514;28;20191;-85
2022/05/23 13:59:50;;;;;;;10.97;5.77;;;12.90;95.20;;;;;;5075163;28;20175;-84
2022/05/23 14:02:24;;;;;;;8.37;5.77;;;12.90;95.20;;;;;;5077303;28;20687;-84
2022/05/23 14:04:53;;;;;;;7.03;5.60;;;12.80;95.20;;;;;;5094852;28;20689;-84
2022/05/23 14:07:27;;;;;;;10.07;6.07;;;12.80;95.20;;;;;;5094382;28;20553;-81
2022/05/23 14:09:55;;;;;;;9.60;6.07;;;12.90;95.30;;;;;;5079616;28;20185;-78
2022/05/23 14:12:29;;;;;;;9.57;6.23;;;12.80;95.20;;;;;;5074205;28;20179;-79
2022/05/23 14:15:08;;;;;;;8.00;5.90;;;12.80;95.30;;;;;;5073614;28;20183;-82
2022/05/23 14:17:40;;;;;;;12.30;6.93;;;12.90;95.30;;;;;;5071428;28;20186;-81
2022/05/23 14:20:34;;;;;;;8.90;6.13;;;12.90;95.40;;;;;;5069559;28;20232;-81
2022/05/23 14:23:20;;;;;;;12.00;6.83;;;13.00;95.40;;;;;;5068565;28;20218;-80
2022/05/23 14:25:57;;;;;;;7.77;6.43;;;13.00;95.40;;;;;;5073121;28;20179;-81